sensor_id;sensor_type;location;lat;lon;timestamp;P1;durP1;ratioP1;P2;durP2;ratioP2
30934;SDS011;51033;42.648;23.292;2024-03-02T00:00:08;39.42;;;20.52;;
30934;SDS011;51033;42.648;23.292;2024-03-02T00:02:40;43.85;;;21.77;;
30934;SDS011;51033;42.648;23.292;2024-03-02T00:05:06;39.90;;;22.48;;
30934;SDS011;51033;42.648;23.292;2024-03-02T00:07:32;38.90;;;22.45;;
30934;SDS011;51033;42.648;23.292;2024-03-02T00:09:58;38.58;;;21.50;;
30934;SDS011;51033;42.648;23.292;2024-03-02T00:12:23;39.58;;;22.08;;
30934;SDS011;51033;42.648;23.292;2024-03-02T00:14:49;34.20;;;21.02;;
30934;SDS011;51033;42.648;23.292;2024-03-02T00:17:17;36.05;;;22.13;;
30934;SDS011;51033;42.648;23.292;2024-03-02T00:22:15;37.55;;;20.92;;
30934;SDS011;51033;42.648;23.292;2024-03-02T00:24:40;29.33;;;19.73;;
30934;SDS011;51033;42.648;23.292;2024-03-02T00:27:05;36.60;;;20.75;;
30934;SDS011;51033;42.648;23.292;2024-03-02T00:29:32;33.20;;;19.45;;
30934;SDS011;51033;42.648;23.292;2024-03-02T00:31:58;34.65;;;20.23;;
30934;SDS011;51033;42.648;23.292;2024-03-02T00:34:23;32.55;;;19.60;;
30934;SDS011;51033;42.648;23.292;2024-03-02T00:36:49;33.25;;;18.85;;
30934;SDS011;51033;42.648;23.292;2024-03-02T00:39:14;34.97;;;21.25;;
30934;SDS011;51033;42.648;23.292;2024-03-02T00:41:42;33.90;;;20.33;;
30934;SDS011;51033;42.648;23.292;2024-03-02T00:44:07;29.33;;;19.45;;
30934;SDS011;51033;42.648;23.292;2024-03-02T00:46:36;32.30;;;19.40;;
30934;SDS011;51033;42.648;23.292;2024-03-02T00:49:03;31.00;;;19.25;;
30934;SDS011;51033;42.648;23.292;2024-03-02T00:51:31;35.78;;;20.20;;
30934;SDS011;51033;42.648;23.292;2024-03-02T00:54:00;33.70;;;20.15;;
30934;SDS011;51033;42.648;23.292;2024-03-02T00:56:28;31.80;;;19.15;;
30934;SDS011;51033;42.648;23.292;2024-03-02T00:58:55;30.45;;;20.10;;
30934;SDS011;51033;42.648;23.292;2024-03-02T01:01:20;29.38;;;20.10;;
30934;SDS011;51033;42.648;23.292;2024-03-02T01:03:46;28.88;;;18.80;;
30934;SDS011;51033;42.648;23.292;2024-03-02T01:06:11;28.27;;;16.75;;
30934;SDS011;51033;42.648;23.292;2024-03-02T01:08:37;35.53;;;20.02;;
30934;SDS011;51033;42.648;23.292;2024-03-02T01:11:03;26.83;;;17.45;;
30934;SDS011;51033;42.648;23.292;2024-03-02T01:13:29;28.52;;;19.83;;
30934;SDS011;51033;42.648;23.292;2024-03-02T01:15:55;25.85;;;16.92;;
30934;SDS011;51033;42.648;23.292;2024-03-02T01:18:21;30.17;;;19.38;;
30934;SDS011;51033;42.648;23.292;2024-03-02T01:20:47;26.63;;;17.63;;
30934;SDS011;51033;42.648;23.292;2024-03-02T01:23:12;33.22;;;17.52;;
30934;SDS011;51033;42.648;23.292;2024-03-02T01:25:38;34.17;;;20.38;;
30934;SDS011;51033;42.648;23.292;2024-03-02T01:28:04;32.42;;;18.40;;
30934;SDS011;51033;42.648;23.292;2024-03-02T01:30:30;29.80;;;18.90;;
30934;SDS011;51033;42.648;23.292;2024-03-02T01:32:55;29.80;;;18.23;;
30934;SDS011;51033;42.648;23.292;2024-03-02T01:35:21;31.42;;;19.27;;
30934;SDS011;51033;42.648;23.292;2024-03-02T01:37:46;28.63;;;18.77;;
30934;SDS011;51033;42.648;23.292;2024-03-02T01:40:11;33.45;;;19.50;;
30934;SDS011;51033;42.648;23.292;2024-03-02T01:42:37;32.38;;;19.13;;
30934;SDS011;51033;42.648;23.292;2024-03-02T01:45:09;32.95;;;18.67;;
30934;SDS011;51033;42.648;23.292;2024-03-02T01:47:35;30.27;;;19.55;;
30934;SDS011;51033;42.648;23.292;2024-03-02T01:50:00;31.95;;;19.77;;
30934;SDS011;51033;42.648;23.292;2024-03-02T01:52:26;33.80;;;18.15;;
30934;SDS011;51033;42.648;23.292;2024-03-02T01:54:52;31.08;;;18.77;;
30934;SDS011;51033;42.648;23.292;2024-03-02T01:57:17;26.83;;;17.15;;
30934;SDS011;51033;42.648;23.292;2024-03-02T01:59:43;31.50;;;19.08;;
30934;SDS011;51033;42.648;23.292;2024-03-02T02:02:10;28.52;;;17.65;;
30934;SDS011;51033;42.648;23.292;2024-03-02T02:04:35;26.13;;;17.23;;
30934;SDS011;51033;42.648;23.292;2024-03-02T02:07:01;25.70;;;16.45;;
30934;SDS011;51033;42.648;23.292;2024-03-02T02:09:26;32.13;;;18.38;;
30934;SDS011;51033;42.648;23.292;2024-03-02T02:11:52;26.80;;;17.30;;
30934;SDS011;51033;42.648;23.292;2024-03-02T02:14:17;21.05;;;14.90;;
30934;SDS011;51033;42.648;23.292;2024-03-02T02:16:43;25.02;;;16.33;;
30934;SDS011;51033;42.648;23.292;2024-03-02T02:19:09;25.55;;;17.50;;
30934;SDS011;51033;42.648;23.292;2024-03-02T02:21:34;22.92;;;13.95;;
30934;SDS011;51033;42.648;23.292;2024-03-02T02:24:00;25.63;;;16.45;;
30934;SDS011;51033;42.648;23.292;2024-03-02T02:26:28;28.67;;;16.33;;
30934;SDS011;51033;42.648;23.292;2024-03-02T02:28:54;27.13;;;16.20;;
30934;SDS011;51033;42.648;23.292;2024-03-02T02:31:20;26.20;;;16.25;;
30934;SDS011;51033;42.648;23.292;2024-03-02T02:33:45;23.00;;;14.80;;
30934;SDS011;51033;42.648;23.292;2024-03-02T02:36:10;24.42;;;15.48;;
30934;SDS011;51033;42.648;23.292;2024-03-02T02:38:37;23.20;;;15.30;;
30934;SDS011;51033;42.648;23.292;2024-03-02T02:41:05;26.25;;;15.77;;
30934;SDS011;51033;42.648;23.292;2024-03-02T02:43:31;19.23;;;13.77;;
30934;SDS011;51033;42.648;23.292;2024-03-02T02:45:56;26.38;;;16.48;;
30934;SDS011;51033;42.648;23.292;2024-03-02T02:48:21;26.58;;;14.50;;
30934;SDS011;51033;42.648;23.292;2024-03-02T02:50:47;25.20;;;15.63;;
30934;SDS011;51033;42.648;23.292;2024-03-02T02:53:12;25.45;;;16.15;;
30934;SDS011;51033;42.648;23.292;2024-03-02T02:55:39;25.70;;;16.50;;
30934;SDS011;51033;42.648;23.292;2024-03-02T02:58:05;27.80;;;15.38;;
30934;SDS011;51033;42.648;23.292;2024-03-02T03:00:34;26.92;;;15.50;;
30934;SDS011;51033;42.648;23.292;2024-03-02T03:02:59;30.10;;;16.48;;
30934;SDS011;51033;42.648;23.292;2024-03-02T03:05:25;31.52;;;17.23;;
30934;SDS011;51033;42.648;23.292;2024-03-02T03:07:50;32.85;;;17.95;;
30934;SDS011;51033;42.648;23.292;2024-03-02T03:10:16;30.15;;;16.52;;
30934;SDS011;51033;42.648;23.292;2024-03-02T03:12:42;26.90;;;16.55;;
30934;SDS011;51033;42.648;23.292;2024-03-02T03:15:08;30.70;;;19.50;;
30934;SDS011;51033;42.648;23.292;2024-03-02T03:17:34;27.45;;;17.92;;
30934;SDS011;51033;42.648;23.292;2024-03-02T03:20:00;30.13;;;17.48;;
30934;SDS011;51033;42.648;23.292;2024-03-02T03:22:26;28.38;;;18.00;;
30934;SDS011;51033;42.648;23.292;2024-03-02T03:24:52;26.15;;;16.35;;
30934;SDS011;51033;42.648;23.292;2024-03-02T03:27:18;28.80;;;17.40;;
30934;SDS011;51033;42.648;23.292;2024-03-02T03:29:44;30.25;;;16.83;;
30934;SDS011;51033;42.648;23.292;2024-03-02T03:32:10;29.95;;;18.35;;
30934;SDS011;51033;42.648;23.292;2024-03-02T03:34:35;25.35;;;17.02;;
30934;SDS011;51033;42.648;23.292;2024-03-02T03:37:01;27.10;;;17.77;;
30934;SDS011;51033;42.648;23.292;2024-03-02T03:39:27;30.10;;;17.40;;
30934;SDS011;51033;42.648;23.292;2024-03-02T03:41:53;32.88;;;17.77;;
30934;SDS011;51033;42.648;23.292;2024-03-02T03:44:19;32.58;;;20.27;;
30934;SDS011;51033;42.648;23.292;2024-03-02T03:46:44;34.38;;;20.70;;
30934;SDS011;51033;42.648;23.292;2024-03-02T03:49:09;39.90;;;23.05;;
30934;SDS011;51033;42.648;23.292;2024-03-02T03:51:35;37.80;;;23.75;;
30934;SDS011;51033;42.648;23.292;2024-03-02T03:54:00;37.17;;;22.70;;
30934;SDS011;51033;42.648;23.292;2024-03-02T03:56:26;40.10;;;24.88;;
30934;SDS011;51033;42.648;23.292;2024-03-02T03:58:52;38.97;;;23.50;;
30934;SDS011;51033;42.648;23.292;2024-03-02T04:01:17;39.55;;;24.33;;
30934;SDS011;51033;42.648;23.292;2024-03-02T04:03:43;43.35;;;22.75;;
30934;SDS011;51033;42.648;23.292;2024-03-02T04:06:08;34.20;;;22.52;;
30934;SDS011;51033;42.648;23.292;2024-03-02T04:08:33;37.58;;;25.08;;
30934;SDS011;51033;42.648;23.292;2024-03-02T04:10:59;40.83;;;24.05;;
30934;SDS011;51033;42.648;23.292;2024-03-02T04:13:24;36.13;;;24.52;;
30934;SDS011;51033;42.648;23.292;2024-03-02T04:15:50;35.05;;;22.55;;
30934;SDS011;51033;42.648;23.292;2024-03-02T04:18:15;40.20;;;23.75;;
30934;SDS011;51033;42.648;23.292;2024-03-02T04:20:41;40.55;;;23.25;;
30934;SDS011;51033;42.648;23.292;2024-03-02T04:23:06;39.03;;;24.75;;
30934;SDS011;51033;42.648;23.292;2024-03-02T04:25:32;37.75;;;23.52;;
30934;SDS011;51033;42.648;23.292;2024-03-02T04:27:58;36.65;;;22.98;;
30934;SDS011;51033;42.648;23.292;2024-03-02T04:30:23;39.38;;;23.80;;
30934;SDS011;51033;42.648;23.292;2024-03-02T04:32:50;37.40;;;23.88;;
30934;SDS011;51033;42.648;23.292;2024-03-02T04:35:15;34.47;;;22.45;;
30934;SDS011;51033;42.648;23.292;2024-03-02T04:37:41;34.75;;;22.60;;
30934;SDS011;51033;42.648;23.292;2024-03-02T04:40:07;31.83;;;20.52;;
30934;SDS011;51033;42.648;23.292;2024-03-02T04:42:35;32.58;;;20.13;;
30934;SDS011;51033;42.648;23.292;2024-03-02T04:45:01;35.03;;;21.58;;
30934;SDS011;51033;42.648;23.292;2024-03-02T04:47:26;36.70;;;21.88;;
30934;SDS011;51033;42.648;23.292;2024-03-02T04:49:52;32.53;;;20.00;;
30934;SDS011;51033;42.648;23.292;2024-03-02T04:52:17;34.13;;;20.83;;
30934;SDS011;51033;42.648;23.292;2024-03-02T04:54:43;33.08;;;18.88;;
30934;SDS011;51033;42.648;23.292;2024-03-02T04:57:27;30.83;;;18.85;;
30934;SDS011;51033;42.648;23.292;2024-03-02T04:59:52;26.15;;;18.10;;
30934;SDS011;51033;42.648;23.292;2024-03-02T05:02:18;28.25;;;17.30;;
30934;SDS011;51033;42.648;23.292;2024-03-02T05:04:43;31.20;;;18.80;;
30934;SDS011;51033;42.648;23.292;2024-03-02T05:07:09;27.42;;;18.27;;
30934;SDS011;51033;42.648;23.292;2024-03-02T05:09:34;27.88;;;17.30;;
30934;SDS011;51033;42.648;23.292;2024-03-02T05:11:59;29.33;;;18.15;;
30934;SDS011;51033;42.648;23.292;2024-03-02T05:14:57;30.02;;;17.48;;
30934;SDS011;51033;42.648;23.292;2024-03-02T05:17:22;33.58;;;19.98;;
30934;SDS011;51033;42.648;23.292;2024-03-02T05:19:47;32.75;;;20.15;;
30934;SDS011;51033;42.648;23.292;2024-03-02T05:22:13;36.80;;;22.27;;
30934;SDS011;51033;42.648;23.292;2024-03-02T05:24:38;40.33;;;26.10;;
30934;SDS011;51033;42.648;23.292;2024-03-02T05:27:04;41.15;;;24.67;;
30934;SDS011;51033;42.648;23.292;2024-03-02T05:29:29;41.10;;;25.58;;
30934;SDS011;51033;42.648;23.292;2024-03-02T05:31:54;43.50;;;27.00;;
30934;SDS011;51033;42.648;23.292;2024-03-02T05:34:20;46.65;;;26.15;;
30934;SDS011;51033;42.648;23.292;2024-03-02T05:36:45;40.78;;;24.60;;
30934;SDS011;51033;42.648;23.292;2024-03-02T05:39:10;41.80;;;25.25;;
30934;SDS011;51033;42.648;23.292;2024-03-02T05:41:36;45.30;;;26.05;;
30934;SDS011;51033;42.648;23.292;2024-03-02T05:44:03;46.92;;;27.40;;
30934;SDS011;51033;42.648;23.292;2024-03-02T05:46:28;43.90;;;26.67;;
30934;SDS011;51033;42.648;23.292;2024-03-02T05:48:54;47.75;;;28.17;;
30934;SDS011;51033;42.648;23.292;2024-03-02T05:51:19;57.22;;;33.78;;
30934;SDS011;51033;42.648;23.292;2024-03-02T05:53:45;51.22;;;30.23;;
30934;SDS011;51033;42.648;23.292;2024-03-02T05:56:10;47.03;;;29.35;;
30934;SDS011;51033;42.648;23.292;2024-03-02T05:58:37;47.92;;;30.65;;
30934;SDS011;51033;42.648;23.292;2024-03-02T06:01:22;52.28;;;28.60;;
30934;SDS011;51033;42.648;23.292;2024-03-02T06:03:53;46.92;;;27.48;;
30934;SDS011;51033;42.648;23.292;2024-03-02T06:06:22;41.80;;;26.35;;
30934;SDS011;51033;42.648;23.292;2024-03-02T06:08:48;51.08;;;28.55;;
30934;SDS011;51033;42.648;23.292;2024-03-02T06:11:13;49.55;;;28.50;;
30934;SDS011;51033;42.648;23.292;2024-03-02T06:13:38;46.72;;;26.95;;
30934;SDS011;51033;42.648;23.292;2024-03-02T06:16:04;47.97;;;27.02;;
30934;SDS011;51033;42.648;23.292;2024-03-02T06:18:30;49.72;;;27.63;;
30934;SDS011;51033;42.648;23.292;2024-03-02T06:20:55;46.05;;;27.60;;
30934;SDS011;51033;42.648;23.292;2024-03-02T06:23:20;49.55;;;29.55;;
30934;SDS011;51033;42.648;23.292;2024-03-02T06:25:46;50.63;;;29.10;;
30934;SDS011;51033;42.648;23.292;2024-03-02T06:28:11;47.28;;;27.42;;
30934;SDS011;51033;42.648;23.292;2024-03-02T06:30:36;49.60;;;30.15;;
30934;SDS011;51033;42.648;23.292;2024-03-02T06:33:02;50.70;;;29.73;;
30934;SDS011;51033;42.648;23.292;2024-03-02T06:35:28;51.28;;;29.55;;
30934;SDS011;51033;42.648;23.292;2024-03-02T06:37:54;48.88;;;28.25;;
30934;SDS011;51033;42.648;23.292;2024-03-02T06:40:20;52.25;;;28.88;;
30934;SDS011;51033;42.648;23.292;2024-03-02T06:42:46;49.85;;;29.92;;
30934;SDS011;51033;42.648;23.292;2024-03-02T06:45:11;49.90;;;29.25;;
30934;SDS011;51033;42.648;23.292;2024-03-02T06:47:37;42.30;;;25.50;;
30934;SDS011;51033;42.648;23.292;2024-03-02T06:50:02;43.15;;;23.60;;
30934;SDS011;51033;42.648;23.292;2024-03-02T06:52:28;39.70;;;23.05;;
30934;SDS011;51033;42.648;23.292;2024-03-02T06:54:53;35.30;;;20.85;;
30934;SDS011;51033;42.648;23.292;2024-03-02T06:57:18;34.83;;;20.00;;
30934;SDS011;51033;42.648;23.292;2024-03-02T06:59:45;31.48;;;18.88;;
30934;SDS011;51033;42.648;23.292;2024-03-02T07:02:11;29.90;;;18.75;;
30934;SDS011;51033;42.648;23.292;2024-03-02T07:04:37;28.42;;;17.70;;
30934;SDS011;51033;42.648;23.292;2024-03-02T07:07:02;29.98;;;16.77;;
30934;SDS011;51033;42.648;23.292;2024-03-02T07:09:28;36.72;;;19.38;;
30934;SDS011;51033;42.648;23.292;2024-03-02T07:11:53;27.40;;;16.33;;
30934;SDS011;51033;42.648;23.292;2024-03-02T07:14:19;35.40;;;19.75;;
30934;SDS011;51033;42.648;23.292;2024-03-02T07:16:44;31.67;;;18.33;;
30934;SDS011;51033;42.648;23.292;2024-03-02T07:19:09;26.92;;;16.77;;
30934;SDS011;51033;42.648;23.292;2024-03-02T07:21:35;31.55;;;16.98;;
30934;SDS011;51033;42.648;23.292;2024-03-02T07:24:00;31.38;;;17.23;;
30934;SDS011;51033;42.648;23.292;2024-03-02T07:26:28;23.45;;;15.95;;
30934;SDS011;51033;42.648;23.292;2024-03-02T07:28:56;27.70;;;15.95;;
30934;SDS011;51033;42.648;23.292;2024-03-02T07:31:21;25.20;;;15.88;;
30934;SDS011;51033;42.648;23.292;2024-03-02T07:33:47;29.48;;;15.82;;
30934;SDS011;51033;42.648;23.292;2024-03-02T07:36:12;24.63;;;15.63;;
30934;SDS011;51033;42.648;23.292;2024-03-02T07:38:38;25.25;;;15.65;;
30934;SDS011;51033;42.648;23.292;2024-03-02T07:41:03;28.77;;;16.75;;
30934;SDS011;51033;42.648;23.292;2024-03-02T07:43:29;30.08;;;19.08;;
30934;SDS011;51033;42.648;23.292;2024-03-02T07:45:56;28.05;;;16.95;;
30934;SDS011;51033;42.648;23.292;2024-03-02T07:48:22;29.30;;;18.17;;
30934;SDS011;51033;42.648;23.292;2024-03-02T07:50:47;29.15;;;16.75;;
30934;SDS011;51033;42.648;23.292;2024-03-02T07:53:13;31.55;;;18.23;;
30934;SDS011;51033;42.648;23.292;2024-03-02T07:55:39;30.35;;;19.65;;
30934;SDS011;51033;42.648;23.292;2024-03-02T07:58:05;32.42;;;19.10;;
30934;SDS011;51033;42.648;23.292;2024-03-02T08:00:31;38.60;;;21.52;;
30934;SDS011;51033;42.648;23.292;2024-03-02T08:02:57;37.83;;;21.55;;
30934;SDS011;51033;42.648;23.292;2024-03-02T08:05:22;36.72;;;21.33;;
30934;SDS011;51033;42.648;23.292;2024-03-02T08:07:47;39.38;;;21.52;;
30934;SDS011;51033;42.648;23.292;2024-03-02T08:10:13;41.17;;;22.13;;
30934;SDS011;51033;42.648;23.292;2024-03-02T08:12:39;37.33;;;23.05;;
30934;SDS011;51033;42.648;23.292;2024-03-02T08:15:04;40.83;;;22.50;;
30934;SDS011;51033;42.648;23.292;2024-03-02T08:17:30;38.72;;;22.13;;
30934;SDS011;51033;42.648;23.292;2024-03-02T08:19:56;36.30;;;20.58;;
30934;SDS011;51033;42.648;23.292;2024-03-02T08:22:22;41.95;;;23.77;;
30934;SDS011;51033;42.648;23.292;2024-03-02T08:24:48;41.35;;;23.95;;
30934;SDS011;51033;42.648;23.292;2024-03-02T08:27:14;48.28;;;23.85;;
30934;SDS011;51033;42.648;23.292;2024-03-02T08:29:40;41.88;;;23.63;;
30934;SDS011;51033;42.648;23.292;2024-03-02T08:32:06;42.70;;;23.48;;
30934;SDS011;51033;42.648;23.292;2024-03-02T08:34:32;43.10;;;24.67;;
30934;SDS011;51033;42.648;23.292;2024-03-02T08:36:58;49.13;;;26.15;;
30934;SDS011;51033;42.648;23.292;2024-03-02T08:39:24;45.33;;;24.48;;
30934;SDS011;51033;42.648;23.292;2024-03-02T08:41:49;48.25;;;25.73;;
30934;SDS011;51033;42.648;23.292;2024-03-02T08:44:16;45.53;;;25.52;;
30934;SDS011;51033;42.648;23.292;2024-03-02T08:46:42;44.67;;;24.17;;
30934;SDS011;51033;42.648;23.292;2024-03-02T08:49:09;41.33;;;21.33;;
30934;SDS011;51033;42.648;23.292;2024-03-02T08:51:35;39.42;;;23.58;;
30934;SDS011;51033;42.648;23.292;2024-03-02T08:54:01;43.58;;;21.40;;
30934;SDS011;51033;42.648;23.292;2024-03-02T08:56:26;40.83;;;23.30;;
30934;SDS011;51033;42.648;23.292;2024-03-02T08:58:52;40.03;;;23.58;;
30934;SDS011;51033;42.648;23.292;2024-03-02T09:01:18;41.38;;;22.75;;
30934;SDS011;51033;42.648;23.292;2024-03-02T09:03:46;46.33;;;26.00;;
30934;SDS011;51033;42.648;23.292;2024-03-02T09:06:12;39.08;;;23.90;;
30934;SDS011;51033;42.648;23.292;2024-03-02T09:08:38;46.15;;;24.60;;
30934;SDS011;51033;42.648;23.292;2024-03-02T09:11:04;42.58;;;22.83;;
30934;SDS011;51033;42.648;23.292;2024-03-02T09:13:30;37.85;;;21.45;;
30934;SDS011;51033;42.648;23.292;2024-03-02T09:15:56;36.28;;;19.95;;
30934;SDS011;51033;42.648;23.292;2024-03-02T09:18:22;37.83;;;19.73;;
30934;SDS011;51033;42.648;23.292;2024-03-02T09:20:47;39.35;;;22.17;;
30934;SDS011;51033;42.648;23.292;2024-03-02T09:23:13;38.47;;;20.23;;
30934;SDS011;51033;42.648;23.292;2024-03-02T09:25:38;35.05;;;20.88;;
30934;SDS011;51033;42.648;23.292;2024-03-02T09:28:03;35.05;;;20.92;;
30934;SDS011;51033;42.648;23.292;2024-03-02T09:30:29;37.17;;;21.00;;
30934;SDS011;51033;42.648;23.292;2024-03-02T09:32:54;30.63;;;19.75;;
30934;SDS011;51033;42.648;23.292;2024-03-02T09:35:19;31.73;;;18.67;;
30934;SDS011;51033;42.648;23.292;2024-03-02T09:37:45;31.52;;;19.23;;
30934;SDS011;51033;42.648;23.292;2024-03-02T09:40:11;30.85;;;17.38;;
30934;SDS011;51033;42.648;23.292;2024-03-02T09:42:38;34.88;;;20.08;;
30934;SDS011;51033;42.648;23.292;2024-03-02T09:45:05;28.40;;;17.55;;
30934;SDS011;51033;42.648;23.292;2024-03-02T09:47:31;33.33;;;19.45;;
30934;SDS011;51033;42.648;23.292;2024-03-02T09:49:56;31.25;;;18.05;;
30934;SDS011;51033;42.648;23.292;2024-03-02T09:52:24;27.50;;;18.52;;
30934;SDS011;51033;42.648;23.292;2024-03-02T09:54:50;26.55;;;15.00;;
30934;SDS011;51033;42.648;23.292;2024-03-02T09:57:16;25.10;;;16.38;;
30934;SDS011;51033;42.648;23.292;2024-03-02T09:59:42;24.80;;;15.98;;
30934;SDS011;51033;42.648;23.292;2024-03-02T10:02:07;24.45;;;15.73;;
30934;SDS011;51033;42.648;23.292;2024-03-02T10:04:33;25.30;;;14.43;;
30934;SDS011;51033;42.648;23.292;2024-03-02T10:07:16;29.02;;;18.15;;
30934;SDS011;51033;42.648;23.292;2024-03-02T10:09:43;26.23;;;16.35;;
30934;SDS011;51033;42.648;23.292;2024-03-02T10:12:13;25.35;;;16.15;;
30934;SDS011;51033;42.648;23.292;2024-03-02T10:14:41;26.15;;;17.05;;
30934;SDS011;51033;42.648;23.292;2024-03-02T10:17:08;26.48;;;17.60;;
30934;SDS011;51033;42.648;23.292;2024-03-02T10:19:35;32.13;;;19.10;;
30934;SDS011;51033;42.648;23.292;2024-03-02T10:22:02;30.50;;;18.50;;
30934;SDS011;51033;42.648;23.292;2024-03-02T10:24:50;30.45;;;17.90;;
30934;SDS011;51033;42.648;23.292;2024-03-02T10:27:16;33.60;;;19.83;;
30934;SDS011;51033;42.648;23.292;2024-03-02T10:29:46;37.10;;;20.38;;
30934;SDS011;51033;42.648;23.292;2024-03-02T10:32:12;33.40;;;19.02;;
30934;SDS011;51033;42.648;23.292;2024-03-02T10:34:39;35.10;;;20.42;;
30934;SDS011;51033;42.648;23.292;2024-03-02T10:37:05;35.53;;;21.58;;
30934;SDS011;51033;42.648;23.292;2024-03-02T10:39:32;40.08;;;21.95;;
30934;SDS011;51033;42.648;23.292;2024-03-02T10:42:00;39.13;;;21.52;;
30934;SDS011;51033;42.648;23.292;2024-03-02T10:44:28;38.92;;;22.38;;
30934;SDS011;51033;42.648;23.292;2024-03-02T10:46:55;36.67;;;21.42;;
30934;SDS011;51033;42.648;23.292;2024-03-02T10:49:21;39.28;;;22.27;;
30934;SDS011;51033;42.648;23.292;2024-03-02T10:51:49;40.47;;;21.45;;
30934;SDS011;51033;42.648;23.292;2024-03-02T10:54:14;36.70;;;22.33;;
30934;SDS011;51033;42.648;23.292;2024-03-02T10:56:40;42.40;;;23.42;;
30934;SDS011;51033;42.648;23.292;2024-03-02T11:01:56;36.95;;;22.58;;
30934;SDS011;51033;42.648;23.292;2024-03-02T11:04:24;51.53;;;26.85;;
30934;SDS011;51033;42.648;23.292;2024-03-02T11:06:50;46.78;;;26.20;;
30934;SDS011;51033;42.648;23.292;2024-03-02T11:09:20;41.28;;;25.52;;
30934;SDS011;51033;42.648;23.292;2024-03-02T11:14:37;37.97;;;23.25;;
30934;SDS011;51033;42.648;23.292;2024-03-02T11:17:08;35.72;;;21.45;;
30934;SDS011;51033;42.648;23.292;2024-03-02T11:19:34;35.33;;;21.42;;
30934;SDS011;51033;42.648;23.292;2024-03-02T11:22:02;32.33;;;19.63;;
30934;SDS011;51033;42.648;23.292;2024-03-02T11:24:29;32.72;;;20.80;;
30934;SDS011;51033;42.648;23.292;2024-03-02T11:26:58;35.85;;;19.73;;
30934;SDS011;51033;42.648;23.292;2024-03-02T11:34:59;28.00;;;17.45;;
30934;SDS011;51033;42.648;23.292;2024-03-02T11:37:29;30.15;;;17.77;;
30934;SDS011;51033;42.648;23.292;2024-03-02T11:39:56;31.80;;;18.25;;
30934;SDS011;51033;42.648;23.292;2024-03-02T11:42:21;33.35;;;19.42;;
30934;SDS011;51033;42.648;23.292;2024-03-02T11:44:47;30.80;;;17.58;;
30934;SDS011;51033;42.648;23.292;2024-03-02T11:47:17;31.73;;;18.25;;
30934;SDS011;51033;42.648;23.292;2024-03-02T11:49:49;30.67;;;17.13;;
30934;SDS011;51033;42.648;23.292;2024-03-02T11:52:16;32.55;;;18.95;;
30934;SDS011;51033;42.648;23.292;2024-03-02T11:54:46;32.17;;;19.38;;
30934;SDS011;51033;42.648;23.292;2024-03-02T11:57:15;35.38;;;21.13;;
30934;SDS011;51033;42.648;23.292;2024-03-02T11:59:42;27.80;;;18.95;;
30934;SDS011;51033;42.648;23.292;2024-03-02T12:02:14;30.35;;;19.45;;
30934;SDS011;51033;42.648;23.292;2024-03-02T12:04:47;31.63;;;20.55;;
30934;SDS011;51033;42.648;23.292;2024-03-02T12:07:18;32.50;;;18.40;;
30934;SDS011;51033;42.648;23.292;2024-03-02T12:09:46;31.75;;;18.98;;
30934;SDS011;51033;42.648;23.292;2024-03-02T12:12:11;32.95;;;20.45;;
30934;SDS011;51033;42.648;23.292;2024-03-02T12:14:49;31.13;;;19.70;;
30934;SDS011;51033;42.648;23.292;2024-03-02T12:17:15;33.22;;;20.35;;
30934;SDS011;51033;42.648;23.292;2024-03-02T12:19:40;31.65;;;19.70;;
30934;SDS011;51033;42.648;23.292;2024-03-02T12:22:06;28.73;;;19.38;;
30934;SDS011;51033;42.648;23.292;2024-03-02T12:24:31;29.48;;;19.05;;
30934;SDS011;51033;42.648;23.292;2024-03-02T12:26:57;27.92;;;17.70;;
30934;SDS011;51033;42.648;23.292;2024-03-02T12:29:23;33.22;;;19.35;;
30934;SDS011;51033;42.648;23.292;2024-03-02T12:31:49;30.73;;;20.05;;
30934;SDS011;51033;42.648;23.292;2024-03-02T12:34:16;33.92;;;20.83;;
30934;SDS011;51033;42.648;23.292;2024-03-02T12:36:42;31.13;;;20.10;;
30934;SDS011;51033;42.648;23.292;2024-03-02T12:39:08;36.13;;;22.60;;
30934;SDS011;51033;42.648;23.292;2024-03-02T12:41:37;34.13;;;20.58;;
30934;SDS011;51033;42.648;23.292;2024-03-02T12:44:05;33.13;;;18.33;;
30934;SDS011;51033;42.648;23.292;2024-03-02T12:46:31;32.25;;;20.27;;
30934;SDS011;51033;42.648;23.292;2024-03-02T12:48:57;34.47;;;21.33;;
30934;SDS011;51033;42.648;23.292;2024-03-02T12:51:32;31.92;;;21.23;;
30934;SDS011;51033;42.648;23.292;2024-03-02T12:53:57;32.20;;;20.77;;
30934;SDS011;51033;42.648;23.292;2024-03-02T12:56:23;33.22;;;21.75;;
30934;SDS011;51033;42.648;23.292;2024-03-02T12:58:53;34.30;;;22.83;;
30934;SDS011;51033;42.648;23.292;2024-03-02T13:01:19;31.00;;;21.80;;
30934;SDS011;51033;42.648;23.292;2024-03-02T13:03:44;34.35;;;20.55;;
30934;SDS011;51033;42.648;23.292;2024-03-02T13:06:10;32.22;;;19.85;;
30934;SDS011;51033;42.648;23.292;2024-03-02T13:08:35;31.88;;;20.85;;
30934;SDS011;51033;42.648;23.292;2024-03-02T13:11:01;32.90;;;21.25;;
30934;SDS011;51033;42.648;23.292;2024-03-02T13:13:30;33.92;;;21.00;;
30934;SDS011;51033;42.648;23.292;2024-03-02T13:15:56;30.77;;;20.52;;
30934;SDS011;51033;42.648;23.292;2024-03-02T13:18:21;31.13;;;21.63;;
30934;SDS011;51033;42.648;23.292;2024-03-02T13:20:47;38.00;;;21.90;;
30934;SDS011;51033;42.648;23.292;2024-03-02T13:23:13;35.70;;;22.10;;
30934;SDS011;51033;42.648;23.292;2024-03-02T13:25:39;33.30;;;20.80;;
30934;SDS011;51033;42.648;23.292;2024-03-02T13:28:04;30.98;;;20.80;;
30934;SDS011;51033;42.648;23.292;2024-03-02T13:30:31;31.30;;;20.35;;
30934;SDS011;51033;42.648;23.292;2024-03-02T13:32:57;34.97;;;23.05;;
30934;SDS011;51033;42.648;23.292;2024-03-02T13:35:23;37.70;;;23.70;;
30934;SDS011;51033;42.648;23.292;2024-03-02T13:37:48;33.67;;;21.77;;
30934;SDS011;51033;42.648;23.292;2024-03-02T13:40:15;38.40;;;24.38;;
30934;SDS011;51033;42.648;23.292;2024-03-02T13:42:44;31.10;;;21.00;;
30934;SDS011;51033;42.648;23.292;2024-03-02T13:45:14;31.63;;;20.73;;
30934;SDS011;51033;42.648;23.292;2024-03-02T13:47:39;31.83;;;21.50;;
30934;SDS011;51033;42.648;23.292;2024-03-02T13:50:05;34.22;;;19.38;;
30934;SDS011;51033;42.648;23.292;2024-03-02T13:52:32;30.20;;;19.77;;
30934;SDS011;51033;42.648;23.292;2024-03-02T13:54:57;31.88;;;20.63;;
30934;SDS011;51033;42.648;23.292;2024-03-02T13:57:23;34.08;;;20.83;;
30934;SDS011;51033;42.648;23.292;2024-03-02T13:59:48;35.85;;;21.15;;
30934;SDS011;51033;42.648;23.292;2024-03-02T14:02:14;36.70;;;21.67;;
30934;SDS011;51033;42.648;23.292;2024-03-02T14:04:40;29.25;;;19.35;;
30934;SDS011;51033;42.648;23.292;2024-03-02T14:07:05;30.88;;;19.98;;
30934;SDS011;51033;42.648;23.292;2024-03-02T14:09:33;30.77;;;20.75;;
30934;SDS011;51033;42.648;23.292;2024-03-02T14:11:59;30.55;;;19.67;;
30934;SDS011;51033;42.648;23.292;2024-03-02T14:14:27;33.78;;;20.33;;
30934;SDS011;51033;42.648;23.292;2024-03-02T14:16:54;32.38;;;21.67;;